sensor_id;sensor_type;location;lat;lon;timestamp;temperature;humidity
12911;DHT22;6523;49.758;6.120;2023-04-06T00:01:25;-0.10;99.90
12911;DHT22;6523;49.758;6.120;2023-04-06T00:03:50;0.30;99.90
12911;DHT22;6523;49.758;6.120;2023-04-06T00:06:16;0.40;99.90
12911;DHT22;6523;49.758;6.120;2023-04-06T00:08:42;0.60;99.90
12911;DHT22;6523;49.758;6.120;2023-04-06T00:11:08;0.50;99.90
12911;DHT22;6523;49.758;6.120;2023-04-06T00:13:34;0.30;99.90
12911;DHT22;6523;49.758;6.120;2023-04-06T00:16:00;0.00;99.90
12911;DHT22;6523;49.758;6.120;2023-04-06T00:18:25;-0.10;99.90
12911;DHT22;6523;49.758;6.120;2023-04-06T00:20:51;-0.20;99.90
12911;DHT22;6523;49.758;6.120;2023-04-06T00:23:17;-0.20;99.90
12911;DHT22;6523;49.758;6.120;2023-04-06T00:25:43;-0.10;99.90
12911;DHT22;6523;49.758;6.120;2023-04-06T00:28:08;0.00;99.90
12911;DHT22;6523;49.758;6.120;2023-04-06T00:30:34;0.00;99.90
12911;DHT22;6523;49.758;6.120;2023-04-06T00:33:00;-0.10;99.90
12911;DHT22;6523;49.758;6.120;2023-04-06T00:35:25;-0.30;99.90
12911;DHT22;6523;49.758;6.120;2023-04-06T00:37:51;-0.50;99.90
12911;DHT22;6523;49.758;6.120;2023-04-06T00:40:17;-0.30;99.90
12911;DHT22;6523;49.758;6.120;2023-04-06T00:42:42;-0.10;99.90
12911;DHT22;6523;49.758;6.120;2023-04-06T00:45:09;0.10;99.90
12911;DHT22;6523;49.758;6.120;2023-04-06T00:47:35;0.10;99.90
12911;DHT22;6523;49.758;6.120;2023-04-06T00:50:00;0.10;99.90
12911;DHT22;6523;49.758;6.120;2023-04-06T00:52:26;-0.10;99.90
12911;DHT22;6523;49.758;6.120;2023-04-06T00:54:51;-0.10;99.90
12911;DHT22;6523;49.758;6.120;2023-04-06T00:57:17;-0.20;99.90
12911;DHT22;6523;49.758;6.120;2023-04-06T00:59:43;-0.40;99.90
12911;DHT22;6523;49.758;6.120;2023-04-06T01:02:09;-0.50;99.90
12911;DHT22;6523;49.758;6.120;2023-04-06T01:04:35;-0.30;99.90
12911;DHT22;6523;49.758;6.120;2023-04-06T01:07:01;-0.40;99.90
12911;DHT22;6523;49.758;6.120;2023-04-06T01:09:30;-0.30;99.90
12911;DHT22;6523;49.758;6.120;2023-04-06T01:11:56;-0.40;99.90
12911;DHT22;6523;49.758;6.120;2023-04-06T01:14:22;-0.60;99.90
12911;DHT22;6523;49.758;6.120;2023-04-06T01:16:48;-0.80;99.90
12911;DHT22;6523;49.758;6.120;2023-04-06T01:19:14;-0.90;99.90
12911;DHT22;6523;49.758;6.120;2023-04-06T01:21:40;-0.90;99.90
12911;DHT22;6523;49.758;6.120;2023-04-06T01:24:06;-1.00;99.90
12911;DHT22;6523;49.758;6.120;2023-04-06T01:26:33;-0.90;99.90
12911;DHT22;6523;49.758;6.120;2023-04-06T01:28:59;-0.50;99.90
12911;DHT22;6523;49.758;6.120;2023-04-06T01:31:25;-0.50;99.90
12911;DHT22;6523;49.758;6.120;2023-04-06T01:33:51;-0.70;99.90
12911;DHT22;6523;49.758;6.120;2023-04-06T01:36:17;-0.60;99.90
12911;DHT22;6523;49.758;6.120;2023-04-06T01:38:42;-0.50;99.90
12911;DHT22;6523;49.758;6.120;2023-04-06T01:41:08;-0.60;99.90
12911;DHT22;6523;49.758;6.120;2023-04-06T01:43:34;-0.70;99.90
12911;DHT22;6523;49.758;6.120;2023-04-06T01:46:00;-0.70;99.90
12911;DHT22;6523;49.758;6.120;2023-04-06T01:48:26;-0.90;99.90
12911;DHT22;6523;49.758;6.120;2023-04-06T01:50:52;-0.70;99.90
12911;DHT22;6523;49.758;6.120;2023-04-06T01:53:18;-0.80;99.90
12911;DHT22;6523;49.758;6.120;2023-04-06T01:55:43;-1.00;99.90
12911;DHT22;6523;49.758;6.120;2023-04-06T01:58:09;-0.90;99.90
12911;DHT22;6523;49.758;6.120;2023-04-06T02:00:34;-0.90;99.90
12911;DHT22;6523;49.758;6.120;2023-04-06T02:03:00;-0.90;99.90
12911;DHT22;6523;49.758;6.120;2023-04-06T02:05:26;-0.90;99.90
12911;DHT22;6523;49.758;6.120;2023-04-06T02:07:51;-0.90;99.90
12911;DHT22;6523;49.758;6.120;2023-04-06T02:10:17;-0.90;99.90
12911;DHT22;6523;49.758;6.120;2023-04-06T02:12:43;-1.10;99.90
12911;DHT22;6523;49.758;6.120;2023-04-06T02:15:08;-1.00;99.90
12911;DHT22;6523;49.758;6.120;2023-04-06T02:17:34;-0.90;99.90
12911;DHT22;6523;49.758;6.120;2023-04-06T02:20:00;-0.80;99.90
12911;DHT22;6523;49.758;6.120;2023-04-06T02:22:26;-0.80;99.90
12911;DHT22;6523;49.758;6.120;2023-04-06T02:24:51;-0.80;99.90
12911;DHT22;6523;49.758;6.120;2023-04-06T02:27:17;-0.90;99.90
12911;DHT22;6523;49.758;6.120;2023-04-06T02:29:42;-1.10;99.90
12911;DHT22;6523;49.758;6.120;2023-04-06T02:32:08;-1.00;99.90
12911;DHT22;6523;49.758;6.120;2023-04-06T02:34:33;-1.10;99.90
12911;DHT22;6523;49.758;6.120;2023-04-06T02:36:59;-1.20;99.90
12911;DHT22;6523;49.758;6.120;2023-04-06T02:39:24;-1.20;99.90
12911;DHT22;6523;49.758;6.120;2023-04-06T02:41:50;-1.10;99.90
12911;DHT22;6523;49.758;6.120;2023-04-06T02:44:15;-1.20;99.90
12911;DHT22;6523;49.758;6.120;2023-04-06T02:46:41;-1.30;99.90
12911;DHT22;6523;49.758;6.120;2023-04-06T02:49:07;-1.50;99.90
12911;DHT22;6523;49.758;6.120;2023-04-06T02:51:33;-1.40;99.90
12911;DHT22;6523;49.758;6.120;2023-04-06T02:53:59;-1.40;99.90
12911;DHT22;6523;49.758;6.120;2023-04-06T02:56:24;-1.40;99.90
12911;DHT22;6523;49.758;6.120;2023-04-06T02:58:50;-1.50;99.90
12911;DHT22;6523;49.758;6.120;2023-04-06T03:01:15;-1.50;99.90
12911;DHT22;6523;49.758;6.120;2023-04-06T03:03:41;-1.40;99.90
12911;DHT22;6523;49.758;6.120;2023-04-06T03:06:07;-1.60;99.90
12911;DHT22;6523;49.758;6.120;2023-04-06T03:08:32;-1.60;99.90
12911;DHT22;6523;49.758;6.120;2023-04-06T03:10:58;-1.60;99.90
12911;DHT22;6523;49.758;6.120;2023-04-06T03:13:23;-1.50;99.90
12911;DHT22;6523;49.758;6.120;2023-04-06T03:15:49;-1.50;99.90
12911;DHT22;6523;49.758;6.120;2023-04-06T03:18:14;-1.30;99.90
12911;DHT22;6523;49.758;6.120;2023-04-06T03:20:40;-1.30;99.90
12911;DHT22;6523;49.758;6.120;2023-04-06T03:23:06;-1.20;99.90
12911;DHT22;6523;49.758;6.120;2023-04-06T03:25:31;-1.30;99.90
12911;DHT22;6523;49.758;6.120;2023-04-06T03:27:57;-1.30;99.90
12911;DHT22;6523;49.758;6.120;2023-04-06T03:30:22;-1.50;99.90
12911;DHT22;6523;49.758;6.120;2023-04-06T03:32:48;-1.60;99.90
12911;DHT22;6523;49.758;6.120;2023-04-06T03:35:13;-1.50;99.90
12911;DHT22;6523;49.758;6.120;2023-04-06T03:37:39;-1.60;99.90
12911;DHT22;6523;49.758;6.120;2023-04-06T03:40:06;-1.50;99.90
12911;DHT22;6523;49.758;6.120;2023-04-06T03:42:31;-1.60;99.90
12911;DHT22;6523;49.758;6.120;2023-04-06T03:44:58;-1.60;99.90
12911;DHT22;6523;49.758;6.120;2023-04-06T03:47:23;-1.60;99.90
12911;DHT22;6523;49.758;6.120;2023-04-06T03:49:49;-1.60;99.90
12911;DHT22;6523;49.758;6.120;2023-04-06T03:52:15;-1.50;99.90
12911;DHT22;6523;49.758;6.120;2023-04-06T03:54:41;-1.60;99.90
12911;DHT22;6523;49.758;6.120;2023-04-06T03:57:06;-1.40;99.90
12911;DHT22;6523;49.758;6.120;2023-04-06T03:59:32;-1.20;99.90
12911;DHT22;6523;49.758;6.120;2023-04-06T04:01:57;-1.20;99.90
12911;DHT22;6523;49.758;6.120;2023-04-06T04:04:23;-1.30;99.90
12911;DHT22;6523;49.758;6.120;2023-04-06T04:06:48;-1.30;99.90
12911;DHT22;6523;49.758;6.120;2023-04-06T04:09:14;-1.20;99.90
12911;DHT22;6523;49.758;6.120;2023-04-06T04:11:40;-1.20;99.90
12911;DHT22;6523;49.758;6.120;2023-04-06T04:14:05;-1.30;99.90
12911;DHT22;6523;49.758;6.120;2023-04-06T04:16:31;-1.30;99.90
12911;DHT22;6523;49.758;6.120;2023-04-06T04:18:56;-1.20;99.90
12911;DHT22;6523;49.758;6.120;2023-04-06T04:21:24;-1.20;99.90
12911;DHT22;6523;49.758;6.120;2023-04-06T04:23:50;-1.30;99.90
12911;DHT22;6523;49.758;6.120;2023-04-06T04:26:16;-1.30;99.90
12911;DHT22;6523;49.758;6.120;2023-04-06T04:28:42;-1.20;99.90
12911;DHT22;6523;49.758;6.120;2023-04-06T04:31:07;-1.20;99.90
12911;DHT22;6523;49.758;6.120;2023-04-06T04:33:33;-1.20;99.90
12911;DHT22;6523;49.758;6.120;2023-04-06T04:35:58;-1.00;99.90
12911;DHT22;6523;49.758;6.120;2023-04-06T04:38:24;-0.90;99.90
12911;DHT22;6523;49.758;6.120;2023-04-06T04:40:49;-0.80;99.90
12911;DHT22;6523;49.758;6.120;2023-04-06T04:43:15;-0.90;99.90
12911;DHT22;6523;49.758;6.120;2023-04-06T04:45:40;-0.90;99.90
12911;DHT22;6523;49.758;6.120;2023-04-06T04:48:06;-1.00;99.90
12911;DHT22;6523;49.758;6.120;2023-04-06T04:50:33;-1.00;99.90
12911;DHT22;6523;49.758;6.120;2023-04-06T04:52:58;-1.00;99.90
12911;DHT22;6523;49.758;6.120;2023-04-06T04:55:24;-0.80;99.90
12911;DHT22;6523;49.758;6.120;2023-04-06T04:57:50;-0.90;99.90
12911;DHT22;6523;49.758;6.120;2023-04-06T05:00:15;-1.20;99.90
12911;DHT22;6523;49.758;6.120;2023-04-06T05:02:41;-1.20;99.90
12911;DHT22;6523;49.758;6.120;2023-04-06T05:05:07;-1.00;99.90
12911;DHT22;6523;49.758;6.120;2023-04-06T05:07:33;-1.00;99.90
12911;DHT22;6523;49.758;6.120;2023-04-06T05:09:59;-0.80;99.90
12911;DHT22;6523;49.758;6.120;2023-04-06T05:12:24;-0.80;99.90
12911;DHT22;6523;49.758;6.120;2023-04-06T05:14:52;-0.80;99.90
12911;DHT22;6523;49.758;6.120;2023-04-06T05:17:18;-0.80;99.90
12911;DHT22;6523;49.758;6.120;2023-04-06T05:19:44;-0.90;99.90
12911;DHT22;6523;49.758;6.120;2023-04-06T05:22:09;-1.00;99.90
12911;DHT22;6523;49.758;6.120;2023-04-06T05:24:35;-0.90;99.90
12911;DHT22;6523;49.758;6.120;2023-04-06T05:27:00;-0.90;99.90
12911;DHT22;6523;49.758;6.120;2023-04-06T05:29:26;-0.90;99.90
12911;DHT22;6523;49.758;6.120;2023-04-06T05:31:52;-0.90;99.90
12911;DHT22;6523;49.758;6.120;2023-04-06T05:34:17;-0.80;99.90
12911;DHT22;6523;49.758;6.120;2023-04-06T05:36:43;-0.70;99.90
12911;DHT22;6523;49.758;6.120;2023-04-06T05:39:08;-0.70;99.90
12911;DHT22;6523;49.758;6.120;2023-04-06T05:41:34;-0.70;99.90
12911;DHT22;6523;49.758;6.120;2023-04-06T05:44:00;-0.70;99.90
12911;DHT22;6523;49.758;6.120;2023-04-06T05:46:25;-0.70;99.90
12911;DHT22;6523;49.758;6.120;2023-04-06T05:48:51;-0.60;99.90
12911;DHT22;6523;49.758;6.120;2023-04-06T05:51:16;-0.60;99.90
12911;DHT22;6523;49.758;6.120;2023-04-06T05:53:42;-0.50;99.90
12911;DHT22;6523;49.758;6.120;2023-04-06T05:56:08;-0.40;99.90
12911;DHT22;6523;49.758;6.120;2023-04-06T05:58:33;-0.20;99.90
12911;DHT22;6523;49.758;6.120;2023-04-06T06:00:59;-0.10;99.90
12911;DHT22;6523;49.758;6.120;2023-04-06T06:03:26;0.00;99.90
12911;DHT22;6523;49.758;6.120;2023-04-06T06:05:51;0.00;99.90
12911;DHT22;6523;49.758;6.120;2023-04-06T06:08:17;0.00;99.90
12911;DHT22;6523;49.758;6.120;2023-04-06T06:10:42;0.10;99.90
12911;DHT22;6523;49.758;6.120;2023-04-06T06:13:08;0.10;99.90
12911;DHT22;6523;49.758;6.120;2023-04-06T06:15:34;0.10;99.90
12911;DHT22;6523;49.758;6.120;2023-04-06T06:18:00;0.20;99.90
12911;DHT22;6523;49.758;6.120;2023-04-06T06:20:26;0.30;99.90
12911;DHT22;6523;49.758;6.120;2023-04-06T06:22:52;0.40;99.90
12911;DHT22;6523;49.758;6.120;2023-04-06T06:25:18;0.30;99.90
12911;DHT22;6523;49.758;6.120;2023-04-06T06:27:44;0.20;99.90
12911;DHT22;6523;49.758;6.120;2023-04-06T06:30:09;0.50;99.90
12911;DHT22;6523;49.758;6.120;2023-04-06T06:32:35;0.60;99.90
12911;DHT22;6523;49.758;6.120;2023-04-06T06:35:01;0.60;99.90
12911;DHT22;6523;49.758;6.120;2023-04-06T06:37:26;0.70;99.90
12911;DHT22;6523;49.758;6.120;2023-04-06T06:39:52;0.90;99.90
12911;DHT22;6523;49.758;6.120;2023-04-06T06:42:17;0.90;99.90
12911;DHT22;6523;49.758;6.120;2023-04-06T06:44:43;0.70;99.90
12911;DHT22;6523;49.758;6.120;2023-04-06T06:47:08;0.80;99.90
12911;DHT22;6523;49.758;6.120;2023-04-06T06:49:34;0.70;99.90
12911;DHT22;6523;49.758;6.120;2023-04-06T06:52:00;1.00;99.90
12911;DHT22;6523;49.758;6.120;2023-04-06T06:54:26;1.20;99.90
12911;DHT22;6523;49.758;6.120;2023-04-06T06:56:51;1.20;99.90
12911;DHT22;6523;49.758;6.120;2023-04-06T06:59:17;1.10;99.90
12911;DHT22;6523;49.758;6.120;2023-04-06T07:01:42;1.20;99.90
12911;DHT22;6523;49.758;6.120;2023-04-06T07:04:08;1.30;99.90
12911;DHT22;6523;49.758;6.120;2023-04-06T07:06:35;1.40;99.90
12911;DHT22;6523;49.758;6.120;2023-04-06T07:09:02;1.30;99.90
12911;DHT22;6523;49.758;6.120;2023-04-06T07:11:28;1.40;99.90
12911;DHT22;6523;49.758;6.120;2023-04-06T07:13:54;1.30;99.90
12911;DHT22;6523;49.758;6.120;2023-04-06T07:16:20;1.40;99.90
12911;DHT22;6523;49.758;6.120;2023-04-06T07:18:45;1.60;99.90
12911;DHT22;6523;49.758;6.120;2023-04-06T07:21:11;1.60;99.90
12911;DHT22;6523;49.758;6.120;2023-04-06T07:23:36;1.60;99.90
12911;DHT22;6523;49.758;6.120;2023-04-06T07:26:03;1.80;99.90
12911;DHT22;6523;49.758;6.120;2023-04-06T07:28:29;2.10;99.90
12911;DHT22;6523;49.758;6.120;2023-04-06T07:30:54;1.90;99.90
12911;DHT22;6523;49.758;6.120;2023-04-06T07:33:20;1.90;99.90
12911;DHT22;6523;49.758;6.120;2023-04-06T07:35:46;2.10;99.90
12911;DHT22;6523;49.758;6.120;2023-04-06T07:38:11;2.20;99.90
12911;DHT22;6523;49.758;6.120;2023-04-06T07:40:37;2.60;99.90
12911;DHT22;6523;49.758;6.120;2023-04-06T07:43:03;2.70;99.90
12911;DHT22;6523;49.758;6.120;2023-04-06T07:45:29;2.90;99.90
12911;DHT22;6523;49.758;6.120;2023-04-06T07:47:54;3.30;99.90
12911;DHT22;6523;49.758;6.120;2023-04-06T07:50:20;3.70;99.90
12911;DHT22;6523;49.758;6.120;2023-04-06T07:52:46;4.00;99.90
12911;DHT22;6523;49.758;6.120;2023-04-06T07:55:11;4.40;99.90
12911;DHT22;6523;49.758;6.120;2023-04-06T07:57:37;4.60;99.90
12911;DHT22;6523;49.758;6.120;2023-04-06T08:00:03;4.60;99.90
12911;DHT22;6523;49.758;6.120;2023-04-06T08:02:31;4.70;99.90
12911;DHT22;6523;49.758;6.120;2023-04-06T08:04:56;5.00;99.90
12911;DHT22;6523;49.758;6.120;2023-04-06T08:07:22;4.70;99.90
12911;DHT22;6523;49.758;6.120;2023-04-06T08:09:47;4.60;99.90
12911;DHT22;6523;49.758;6.120;2023-04-06T08:12:13;4.80;99.90
12911;DHT22;6523;49.758;6.120;2023-04-06T08:14:39;5.20;99.90
12911;DHT22;6523;49.758;6.120;2023-04-06T08:17:05;5.40;99.90
12911;DHT22;6523;49.758;6.120;2023-04-06T08:19:30;5.70;99.90
12911;DHT22;6523;49.758;6.120;2023-04-06T08:21:56;5.80;99.90
12911;DHT22;6523;49.758;6.120;2023-04-06T08:24:21;5.90;99.90
12911;DHT22;6523;49.758;6.120;2023-04-06T08:26:47;6.10;99.90
12911;DHT22;6523;49.758;6.120;2023-04-06T08:29:12;6.10;99.90
12911;DHT22;6523;49.758;6.120;2023-04-06T08:31:38;6.10;99.90
12911;DHT22;6523;49.758;6.120;2023-04-06T08:34:04;6.30;99.90
12911;DHT22;6523;49.758;6.120;2023-04-06T08:36:30;6.60;99.90
12911;DHT22;6523;49.758;6.120;2023-04-06T08:38:56;6.90;99.90
12911;DHT22;6523;49.758;6.120;2023-04-06T08:41:22;7.20;99.90
12911;DHT22;6523;49.758;6.120;2023-04-06T08:44:06;7.40;99.90
12911;DHT22;6523;49.758;6.120;2023-04-06T08:46:31;7.50;99.90
12911;DHT22;6523;49.758;6.120;2023-04-06T08:48:59;7.70;99.90
12911;DHT22;6523;49.758;6.120;2023-04-06T08:51:26;7.90;99.90
12911;DHT22;6523;49.758;6.120;2023-04-06T08:53:56;8.00;99.90
12911;DHT22;6523;49.758;6.120;2023-04-06T08:56:22;8.20;99.90
12911;DHT22;6523;49.758;6.120;2023-04-06T08:58:48;8.10;99.90
12911;DHT22;6523;49.758;6.120;2023-04-06T09:01:17;8.40;99.90
12911;DHT22;6523;49.758;6.120;2023-04-06T09:03:43;8.30;99.90
12911;DHT22;6523;49.758;6.120;2023-04-06T09:06:09;8.50;99.90
12911;DHT22;6523;49.758;6.120;2023-04-06T09:08:39;8.60;99.90
12911;DHT22;6523;49.758;6.120;2023-04-06T09:11:05;8.70;99.90
12911;DHT22;6523;49.758;6.120;2023-04-06T09:13:31;8.80;99.90
12911;DHT22;6523;49.758;6.120;2023-04-06T09:16:04;8.70;99.90
12911;DHT22;6523;49.758;6.120;2023-04-06T09:18:33;8.90;99.90
12911;DHT22;6523;49.758;6.120;2023-04-06T09:21:06;9.20;99.90
12911;DHT22;6523;49.758;6.120;2023-04-06T09:23:32;9.20;99.90
12911;DHT22;6523;49.758;6.120;2023-04-06T09:26:11;9.40;99.90
12911;DHT22;6523;49.758;6.120;2023-04-06T09:28:48;9.20;99.90
12911;DHT22;6523;49.758;6.120;2023-04-06T09:31:22;9.00;99.90
12911;DHT22;6523;49.758;6.120;2023-04-06T09:33:48;9.20;99.90
12911;DHT22;6523;49.758;6.120;2023-04-06T09:36:14;9.40;99.90
12911;DHT22;6523;49.758;6.120;2023-04-06T09:38:58;9.50;99.90
12911;DHT22;6523;49.758;6.120;2023-04-06T09:41:29;9.50;99.90
12911;DHT22;6523;49.758;6.120;2023-04-06T09:44:13;9.70;99.90
12911;DHT22;6523;49.758;6.120;2023-04-06T09:46:40;9.90;99.90
12911;DHT22;6523;49.758;6.120;2023-04-06T09:49:07;10.00;99.90
12911;DHT22;6523;49.758;6.120;2023-04-06T09:51:37;10.40;99.90
12911;DHT22;6523;49.758;6.120;2023-04-06T09:54:04;10.60;99.90
12911;DHT22;6523;49.758;6.120;2023-04-06T09:59:18;10.30;99.90
12911;DHT22;6523;49.758;6.120;2023-04-06T10:01:46;10.70;99.90
12911;DHT22;6523;49.758;6.120;2023-04-06T10:04:26;10.70;99.90
12911;DHT22;6523;49.758;6.120;2023-04-06T10:06:57;10.70;99.90
12911;DHT22;6523;49.758;6.120;2023-04-06T10:09:26;10.80;99.90
12911;DHT22;6523;49.758;6.120;2023-04-06T10:11:54;10.80;99.90
12911;DHT22;6523;49.758;6.120;2023-04-06T10:14:20;10.60;99.90
12911;DHT22;6523;49.758;6.120;2023-04-06T10:16:48;10.50;99.90
12911;DHT22;6523;49.758;6.120;2023-04-06T10:22:22;10.40;99.90
12911;DHT22;6523;49.758;6.120;2023-04-06T10:24:50;10.50;99.90
12911;DHT22;6523;49.758;6.120;2023-04-06T10:27:15;10.40;99.90
12911;DHT22;6523;49.758;6.120;2023-04-06T10:29:48;10.30;99.90
12911;DHT22;6523;49.758;6.120;2023-04-06T10:32:15;10.40;99.90
12911;DHT22;6523;49.758;6.120;2023-04-06T10:34:40;10.40;99.90
12911;DHT22;6523;49.758;6.120;2023-04-06T10:37:16;10.60;99.90
12911;DHT22;6523;49.758;6.120;2023-04-06T10:39:53;10.60;99.90
12911;DHT22;6523;49.758;6.120;2023-04-06T10:42:36;10.60;99.90
12911;DHT22;6523;49.758;6.120;2023-04-06T10:45:06;10.40;99.90
12911;DHT22;6523;49.758;6.120;2023-04-06T10:47:42;10.30;99.90
12911;DHT22;6523;49.758;6.120;2023-04-06T10:50:07;10.10;99.90
12911;DHT22;6523;49.758;6.120;2023-04-06T10:52:33;10.40;99.90
12911;DHT22;6523;49.758;6.120;2023-04-06T10:54:58;10.30;99.90
12911;DHT22;6523;49.758;6.120;2023-04-06T10:57:28;10.30;99.90
12911;DHT22;6523;49.758;6.120;2023-04-06T10:59:56;10.40;99.90
12911;DHT22;6523;49.758;6.120;2023-04-06T11:02:21;10.50;99.90
12911;DHT22;6523;49.758;6.120;2023-04-06T11:04:57;10.40;99.90
12911;DHT22;6523;49.758;6.120;2023-04-06T11:07:26;10.10;99.90
12911;DHT22;6523;49.758;6.120;2023-04-06T11:09:52;10.20;99.90
12911;DHT22;6523;49.758;6.120;2023-04-06T11:12:24;9.70;99.90
12911;DHT22;6523;49.758;6.120;2023-04-06T11:14:55;9.60;99.90
12911;DHT22;6523;49.758;6.120;2023-04-06T11:17:28;9.50;99.90
12911;DHT22;6523;49.758;6.120;2023-04-06T11:19:55;9.70;99.90
12911;DHT22;6523;49.758;6.120;2023-04-06T11:22:20;9.70;99.90
12911;DHT22;6523;49.758;6.120;2023-04-06T11:24:46;9.80;99.90
12911;DHT22;6523;49.758;6.120;2023-04-06T11:27:12;9.90;99.90
12911;DHT22;6523;49.758;6.120;2023-04-06T11:29:40;10.20;99.90
12911;DHT22;6523;49.758;6.120;2023-04-06T11:32:06;10.10;99.90
12911;DHT22;6523;49.758;6.120;2023-04-06T11:34:37;10.00;99.90
12911;DHT22;6523;49.758;6.120;2023-04-06T11:37:12;9.80;99.90
12911;DHT22;6523;49.758;6.120;2023-04-06T11:42:24;9.90;99.90
12911;DHT22;6523;49.758;6.120;2023-04-06T11:44:58;9.80;99.90
12911;DHT22;6523;49.758;6.120;2023-04-06T11:47:34;9.70;99.90
12911;DHT22;6523;49.758;6.120;2023-04-06T11:52:36;9.60;99.90
12911;DHT22;6523;49.758;6.120;2023-04-06T11:55:16;9.50;99.90
12911;DHT22;6523;49.758;6.120;2023-04-06T11:57:42;9.50;99.90
12911;DHT22;6523;49.758;6.120;2023-04-06T12:00:09;9.30;99.90
12911;DHT22;6523;49.758;6.120;2023-04-06T12:02:36;9.30;99.90
12911;DHT22;6523;49.758;6.120;2023-04-06T12:05:03;9.40;99.90
12911;DHT22;6523;49.758;6.120;2023-04-06T12:07:29;9.60;99.90
12911;DHT22;6523;49.758;6.120;2023-04-06T12:09:55;9.90;99.90
12911;DHT22;6523;49.758;6.120;2023-04-06T12:12:21;9.50;99.90
12911;DHT22;6523;49.758;6.120;2023-04-06T12:14:47;9.30;99.90
12911;DHT22;6523;49.758;6.120;2023-04-06T12:17:12;9.20;99.90
12911;DHT22;6523;49.758;6.120;2023-04-06T12:19:38;9.20;99.90
12911;DHT22;6523;49.758;6.120;2023-04-06T12:22:03;9.10;99.90
12911;DHT22;6523;49.758;6.120;2023-04-06T12:24:29;9.10;99.90
12911;DHT22;6523;49.758;6.120;2023-04-06T12:26:55;9.00;99.90
12911;DHT22;6523;49.758;6.120;2023-04-06T12:29:20;8.90;99.90
12911;DHT22;6523;49.758;6.120;2023-04-06T12:31:46;8.90;99.90
12911;DHT22;6523;49.758;6.120;2023-04-06T12:34:11;8.80;99.90
12911;DHT22;6523;49.758;6.120;2023-04-06T12:36:37;8.70;99.90
12911;DHT22;6523;49.758;6.120;2023-04-06T12:39:04;8.60;99.90
12911;DHT22;6523;49.758;6.120;2023-04-06T12:41:29;8.90;99.90
12911;DHT22;6523;49.758;6.120;2023-04-06T12:43:55;9.10;99.90
12911;DHT22;6523;49.758;6.120;2023-04-06T12:46:21;9.20;99.90
12911;DHT22;6523;49.758;6.120;2023-04-06T12:48:47;9.10;99.90
12911;DHT22;6523;49.758;6.120;2023-04-06T12:51:13;9.30;99.90
12911;DHT22;6523;49.758;6.120;2023-04-06T12:53:39;9.00;99.90
12911;DHT22;6523;49.758;6.120;2023-04-06T12:56:20;9.00;99.90
12911;DHT22;6523;49.758;6.120;2023-04-06T12:58:50;9.00;99.90
12911;DHT22;6523;49.758;6.120;2023-04-06T13:01:16;8.80;99.90
12911;DHT22;6523;49.758;6.120;2023-04-06T13:03:43;8.90;99.90
12911;DHT22;6523;49.758;6.120;2023-04-06T13:06:09;9.00;99.90
12911;DHT22;6523;49.758;6.120;2023-04-06T13:08:36;8.80;99.90
12911;DHT22;6523;49.758;6.120;2023-04-06T13:11:06;8.70;99.90
12911;DHT22;6523;49.758;6.120;2023-04-06T13:13:35;8.80;99.90
12911;DHT22;6523;49.758;6.120;2023-04-06T13:16:08;8.80;99.90
12911;DHT22;6523;49.758;6.120;2023-04-06T13:18:35;8.70;99.90
12911;DHT22;6523;49.758;6.120;2023-04-06T13:21:02;8.60;99.90
12911;DHT22;6523;49.758;6.120;2023-04-06T13:23:28;8.80;99.90
12911;DHT22;6523;49.758;6.120;2023-04-06T13:26:03;8.70;99.90
12911;DHT22;6523;49.758;6.120;2023-04-06T13:28:29;8.40;99.90
12911;DHT22;6523;49.758;6.120;2023-04-06T13:30:55;8.40;99.90
12911;DHT22;6523;49.758;6.120;2023-04-06T13:33:21;8.20;99.90
12911;DHT22;6523;49.758;6.120;2023-04-06T13:35:47;8.00;99.90
12911;DHT22;6523;49.758;6.120;2023-04-06T13:38:13;8.00;99.90
12911;DHT22;6523;49.758;6.120;2023-04-06T13:40:40;8.10;99.90
12911;DHT22;6523;49.758;6.120;2023-04-06T13:43:06;8.00;99.90
12911;DHT22;6523;49.758;6.120;2023-04-06T13:45:31;8.10;99.90
12911;DHT22;6523;49.758;6.120;2023-04-06T13:47:57;8.10;99.90
12911;DHT22;6523;49.758;6.120;2023-04-06T13:50:22;8.00;99.90
12911;DHT22;6523;49.758;6.120;2023-04-06T13:52:48;7.90;99.90
12911;DHT22;6523;49.758;6.120;2023-04-06T13:55:14;8.00;99.90
12911;DHT22;6523;49.758;6.120;2023-04-06T13:57:41;8.20;99.90
12911;DHT22;6523;49.758;6.120;2023-04-06T14:00:07;8.00;99.90
12911;DHT22;6523;49.758;6.120;2023-04-06T14:02:34;8.00;99.90
12911;DHT22;6523;49.758;6.120;2023-04-06T14:04:59;7.90;99.90
12911;DHT22;6523;49.758;6.120;2023-04-06T14:07:25;7.70;99.90
12911;DHT22;6523;49.758;6.120;2023-04-06T14:09:51;7.70;99.90
12911;DHT22;6523;49.758;6.120;2023-04-06T14:12:16;7.60;99.90
12911;DHT22;6523;49.758;6.120;2023-04-06T14:14:42;7.40;99.90
12911;DHT22;6523;49.758;6.120;2023-04-06T14:17:08;7.30;99.90
12911;DHT22;6523;49.758;6.120;2023-04-06T14:19:33;7.20;99.90
12911;DHT22;6523;49.758;6.120;2023-04-06T14:21:59;7.30;99.90
12911;DHT22;6523;49.758;6.120;2023-04-06T14:24:25;7.40;99.90
12911;DHT22;6523;49.758;6.120;2023-04-06T14:26:51;7.30;99.90
12911;DHT22;6523;49.758;6.120;2023-04-06T14:29:17;7.30;99.90
12911;DHT22;6523;49.758;6.120;2023-04-06T14:31:44;7.30;99.90
12911;DHT22;6523;49.758;6.120;2023-04-06T14:34:10;7.20;99.90
12911;DHT22;6523;49.758;6.120;2023-04-06T14:36:35;7.40;99.90
12911;DHT22;6523;49.758;6.120;2023-04-06T14:39:06;7.40;99.90
12911;DHT22;6523;49.758;6.120;2023-04-06T14:41:32;7.40;99.90
12911;DHT22;6523;49.758;6.120;2023-04-06T14:43:59;7.30;99.90
12911;DHT22;6523;49.758;6.120;2023-04-06T14:46:24;7.20;99.90
12911;DHT22;6523;49.758;6.120;2023-04-06T14:48:50;7.10;99.90
12911;DHT22;6523;49.758;6.120;2023-04-06T14:51:16;7.10;99.90
12911;DHT22;6523;49.758;6.120;2023-04-06T14:53:42;7.20;99.90
12911;DHT22;6523;49.758;6.120;2023-04-06T14:56:08;7.20;99.90
12911;DHT22;6523;49.758;6.120;2023-04-06T14:58:34;7.20;99.90
12911;DHT22;6523;49.758;6.120;2023-04-06T15:01:00;7.10;99.90
12911;DHT22;6523;49.758;6.120;2023-04-06T15:03:27;7.10;99.90
12911;DHT22;6523;49.758;6.120;2023-04-06T15:05:53;6.90;99.90
12911;DHT22;6523;49.758;6.120;2023-04-06T15:08:19;7.00;99.90
12911;DHT22;6523;49.758;6.120;2023-04-06T15:10:46;7.00;99.90
12911;DHT22;6523;49.758;6.120;2023-04-06T15:13:12;7.10;99.90
12911;DHT22;6523;49.758;6.120;2023-04-06T15:15:38;7.20;99.90
12911;DHT22;6523;49.758;6.120;2023-04-06T15:18:04;7.10;99.90
12911;DHT22;6523;49.758;6.120;2023-04-06T15:20:30;7.10;99.90
12911;DHT22;6523;49.758;6.120;2023-04-06T15:22:56;7.10;99.90
12911;DHT22;6523;49.758;6.120;2023-04-06T15:25:21;7.00;99.90
12911;DHT22;6523;49.758;6.120;2023-04-06T15:27:47;6.90;99.90
12911;DHT22;6523;49.758;6.120;2023-04-06T15:30:13;7.00;99.90
12911;DHT22;6523;49.758;6.120;2023-04-06T15:32:38;7.10;99.90
12911;DHT22;6523;49.758;6.120;2023-04-06T15:35:11;7.00;99.90
12911;DHT22;6523;49.758;6.120;2023-04-06T15:37:37;7.20;99.90
12911;DHT22;6523;49.758;6.120;2023-04-06T15:40:03;7.10;99.90
12911;DHT22;6523;49.758;6.120;2023-04-06T15:42:29;7.00;99.90
12911;DHT22;6523;49.758;6.120;2023-04-06T15:44:55;7.00;99.90
12911;DHT22;6523;49.758;6.120;2023-04-06T15:47:20;6.90;99.90
12911;DHT22;6523;49.758;6.120;2023-04-06T15:49:46;6.90;99.90
12911;DHT22;6523;49.758;6.120;2023-04-06T15:52:11;6.90;99.90
12911;DHT22;6523;49.758;6.120;2023-04-06T15:54:37;6.90;99.90
12911;DHT22;6523;49.758;6.120;2023-04-06T15:57:06;6.80;99.90
12911;DHT22;6523;49.758;6.120;2023-04-06T15:59:32;6.90;99.90
12911;DHT22;6523;49.758;6.120;2023-04-06T16:01:57;6.80;99.90